• Join FlightAware (Why Join?)
  • Login
  • US Flag 
03:04AM EDT


 

Airport Tracker/Info


-or-


 

Live Flight TrackerFlight Track Log ✈ RPA3247 ✈ 30-Apr-2013 ✈ KALB - KDCA

Flight Track Log - Related Links

Times and Time Zones

All times are in EDT time to prevent confusion due to time zone crossing. See the RPA3247 flight status page for this flight to view local times or setup timezone preferences in your user account.

Time Position Orientation Groundspeed Altitude Reporting Facility
EDT Latitude Longitude Course Direction KTS MPH feet Rate Location/Type
05:25PM 42.7214 -73.8050 135° Southeast 166 191 1,700  Level Boston Center
05:26PM 42.6753 -73.8294 201° Southwest 164 189 4,000 2,820 Climbing Boston Center
05:27PM 42.5323 -73.9945 171° South  Level Estimated
05:27PM 42.6742 -73.9256 269° West 153 176 7,500  Level Boston Center
05:28PM 42.4816 -73.8997 126° Southeast  Level FlightAware Approximate
05:28PM 42.6686 -74.0214 266° West 207 238 10,700  Level Boston Center
05:29PM 42.4103 -73.9656 170° South  Level Estimated
05:29PM 42.6650 -74.1258 267° West 266 306 14,100  Level Boston Center
05:30PM 42.3491 -73.8831 135° Southeast  Level FlightAware Approximate
05:30PM 42.6222 -74.1953 230° Southwest 264 304 16,500  Level Boston Center
05:31PM 42.5378 -74.1419 155° Southeast 253 291 17,800 1,560 Climbing Boston Center
05:32PM 42.4511 -74.0861 155° Southeast 306 352 19,700 2,100 Climbing Boston Center
05:33PM 42.3581 -74.0219 153° Southeast 352 405 22,100 2,160 Climbing Boston Center
05:34PM 42.2633 -73.9494 150° Southeast 374 430 24,100 1,860 Climbing Boston Center
05:35PM 42.1722 -73.8883 154° Southeast 394 453 25,900 1,680 Climbing Boston Center
05:36PM 42.0619 -73.8831 178° South 394 453 27,500 1,020 Climbing Boston Center
05:37PM 41.9531 -73.9281 197° South 395 455 28,000 240 Climbing Boston Center
05:38PM 41.8439 -73.9756 198° South 395 455 28,000  Level Boston Center
05:40PM 41.6197 -74.0622 196° South 420 483 28,000  Level New York Center
05:41PM 41.5164 -74.1069 198° South 415 478 28,000  Level New York Center
05:42PM 41.4047 -74.1539 198° South 415 478 28,000  Level New York Center
05:43PM 41.2972 -74.1981 197° South 415 478 28,000  Level New York Center
05:44PM 41.1731 -74.2442 196° South 420 483 28,000  Level New York Center
05:45PM 41.0653 -74.2908 198° South 420 483 28,000  Level New York Center
05:46PM 40.9539 -74.3317 195° South 420 483 28,000  Level New York Center
05:47PM 40.8461 -74.3783 198° South 420 483 28,000  Level New York Center
05:48PM 40.7517 -74.4636 214° Southwest 404 465 28,000 -300 Level New York Center
05:49PM 40.6997 -74.5922 242° Southwest 386 444 27,500 -900 Descending New York Center
05:50PM 40.6558 -74.7267 247° West 397 457 26,200 -1,320 Descending New York Center
05:51PM 40.6014 -74.8519 240° Southwest 397 457 24,900 -1,320 Descending New York Center
05:52PM 40.5411 -74.9686 236° Southwest 392 451 23,600 -1,320 Descending New York Center
05:53PM 40.4808 -75.0822 235° Southwest 392 451 22,300 -840 Descending New York Center
05:54PM 40.4225 -75.1956 236° Southwest 386 444 22,000 -180 Descending New York Center
05:55PM 40.3378 -75.2803 217° Southwest 381 438 22,000  Level New York Center
05:56PM 40.2514 -75.3614 216° Southwest 381 438 22,000  Level New York Center
05:57PM 40.1669 -75.4403 216° Southwest 381 438 22,000  Level New York Center
05:58PM 40.0803 -75.5239 216° Southwest 386 444 22,000  Level New York Center
05:59PM 39.9958 -75.6022 215° Southwest 386 444 22,000  Level New York Center
06:00PM 39.9131 -75.6883 219° Southwest 386 444 22,000  Level New York Center
06:01PM 39.8453 -75.8108 234° Southwest 393 452 22,000  Level New York Center
06:02PM 39.7836 -75.9333 237° Southwest 407 468 22,000 -660 Level New York Center
06:03PM 39.7200 -76.0556 236° Southwest 413 475 20,700 -1,800 Descending New York Center
06:05PM 39.5833 -76.2500 228° Southwest 393 452 17,000 -2,460 Descending Potomac TRACON
06:06PM 39.5000 -76.3500 223° Southwest 381 438 14,000 -2,520 Descending Potomac TRACON
06:07PM 39.4333 -76.4333 224° Southwest 363 418 12,000 -1,320 Descending Potomac TRACON
06:08PM 39.3500 -76.5000 212° Southwest 363 418 11,600 -1,080 Descending Potomac TRACON
06:09PM 39.2667 -76.5667 212° Southwest 353 406 10,000 -840 Descending Potomac TRACON
06:10PM 39.2000 -76.6333 218° Southwest 301 346 10,000  Level Potomac TRACON
06:11PM 39.1500 -76.7000 226° Southwest 290 334 10,000  Level Potomac TRACON
06:12PM 39.0833 -76.7667 218° Southwest 291 335 10,000 -180 Level Potomac TRACON
06:13PM 39.0333 -76.8333 226° Southwest 248 285 9,700 -900 Descending Potomac TRACON
06:14PM 38.9833 -76.8833 218° Southwest 243 280 8,200 -1,800 Descending Potomac TRACON
06:14PM 38.9333 -76.9333 218° Southwest 235 270 6,300 -1,200 Descending Potomac TRACON
06:15PM 38.8833 -76.9500 195° South 205 236 6,000 -480 Descending Potomac TRACON
06:17PM 38.8167 -76.9500 180° South 207 238 5,400 -540 Descending Potomac TRACON
06:18PM 38.7667 -76.9500 180° South 198 228 5,000 -240 Descending Potomac TRACON
06:19PM 38.7167 -76.9333 165° South 176 203 5,000 -120 Level Potomac TRACON
06:20PM 38.6667 -76.9333 180° South 174 200 4,800 -540 Descending Potomac TRACON
06:21PM 38.6167 -76.9333 180° South 175 201 4,000 -420 Descending Potomac TRACON
06:22PM 38.5667 -76.9167 165° South 174 200 4,000  Level Potomac TRACON
06:23PM 38.5500 -76.9667 247° West 209 241 4,000  Level Potomac TRACON
06:24PM 38.5833 -77.0000 322° Northwest 187 215 4,000  Level Potomac TRACON
06:25PM 38.6333 -77.0167 345° North 175 201 4,000 -360 Level Potomac TRACON
06:26PM 38.6833 -77.0167 360° North 158 182 3,300 -780 Descending Potomac TRACON
06:27PM 38.7167 -77.0167 360° North 155 178 2,500 -840 Descending Potomac TRACON